Hodge, California
Current Conditions -  °F | °C
As of 12:50 PM on Sunday 23 Nov 2014 (Local Time) from KDAG Reporting Station
Clear Clear  
Wind Chill: 66°   Ceiling: Unl
Heat Index: 66°   Visibility: 10mi
Dew Point:   Wind: 10mph
Humidity: 9%   Direction: 30°NNE
Pressure: 30.24"   Gusts: NA
Location:  35.1476°N, 117.206°W
Report Text: KDAG 232050Z AUTO 03009KT 10SM CLR 19/M15 A3024 RMK AO2 SLP225 T01891150 58024
Loading
Personal Weather Stations






























Interactive Weather Map New forecast layout! Learn more

10-Day Weather Forecast

Advertisements
Track Severe Weather on mobile